X  Cerrar Datos meteorológicos de aviación METAR     YMML Melbourne International Airport
Temperatura
10°C Temperatura
3°C Punto de rocío
62% Humedad



Viento
22 MPH
35 KM/H
10 M/S
19 NUDO



290°
ONO
Condiciones actuales

Nubes mayormente dispersas Nubes mayormente dispersas
Presión 998.98 (hPa) - 29.5 (inHg)
Visibilidad 6 (milla) - 9.7 (km)
Aeropuerto
Código de aeropuerto YMML

localidad: Melbourne International Airport
Distancia: 18 (mi)

Metar:
YMML 200030Z 29019KT 9999 SCT040 BKN110 10/03 Q0999 RF00.0/000.0

Hora: 20-07-2024 10:30 AEST